Terminal Aerodrome Forecast
Issued by NWS

Home | Current Version | Previous Version | Text Only | Print | Product List | Glossary On
Versions: 1 2 3 4 5 6 7 8 9 10 11 12 13 14
000
FTUS45 KREV 261747
TAFTVL
TAF
KTVL 261747Z 2618/2718 19006KT P6SM BKN025 OVC060
     FM262300 05009KT P6SM VCSH BKN045 OVC060
     FM270300 17004KT P6SM SCT040 BKN070
     FM270600 VRB02KT P6SM SCT050 SCT180=

USA.gov is the U.S. government's official web portal to all federal, state and local government web resources and services.